Time;durP1;ratioP1;P1;durP2;ratioP2;P2;SDS_P1;SDS_P2;PMS_P1;PMS_P2;Temp;Humidity;BMP_temperature;BMP_pressure;BME280_temperature;BME280_humidity;BME280_pressure;Samples;Min_cycle;Max_cycle;Signal;HPM_P1;HPM_P2
2022/05/13 00:01:23;;;;;;;0.63;0.10;;;;;;;15.73;62.74;101456.16;7384637;19;20015;-68
2022/05/13 00:03:50;;;;;;;0.40;0.10;;;;;;;15.70;65.41;101461.78;7388654;19;20030;-68
2022/05/13 00:06:17;;;;;;;2.67;1.10;;;;;;;15.74;67.17;101457.00;7385396;19;20475;-69
2022/05/13 00:08:44;;;;;;;3.33;1.08;;;;;;;15.77;65.75;101457.47;7387284;19;20062;-68
2022/05/13 00:11:11;;;;;;;0.98;0.10;;;;;;;15.77;66.46;101457.47;7385356;19;20022;-68
2022/05/13 00:13:39;;;;;;;1.88;0.20;;;;;;;15.79;64.26;101452.00;7384805;19;20034;-67
2022/05/13 00:16:06;;;;;;;4.88;0.10;;;;;;;15.78;64.21;101456.47;7383359;19;20499;-67
2022/05/13 00:18:34;;;;;;;4.18;0.20;;;;;;;15.79;65.69;101452.84;7386336;19;20011;-68
2022/05/13 00:21:01;;;;;;;1.15;0.20;;;;;;;15.80;65.52;101443.00;7384211;19;20090;-68
2022/05/13 00:23:28;;;;;;;2.70;0.20;;;;;;;15.77;64.67;101440.72;7385734;19;20506;-68
2022/05/13 00:25:56;;;;;;;0.88;0.20;;;;;;;15.75;65.40;101442.69;7383297;19;20032;-68
2022/05/13 00:28:22;;;;;;;3.58;0.28;;;;;;;15.72;65.46;101438.59;7387893;19;20052;-68
2022/05/13 00:30:51;;;;;;;5.38;0.50;;;;;;;15.74;66.59;101441.06;7387202;19;20070;-68
2022/05/13 00:33:19;;;;;;;3.13;0.38;;;;;;;15.68;66.43;101447.06;7387579;19;20309;-68
2022/05/13 00:35:48;;;;;;;2.40;0.40;;;;;;;15.61;66.77;101438.13;7385318;19;20338;-68
2022/05/13 00:38:15;;;;;;;6.57;0.30;;;;;;;15.58;67.59;101449.06;7383790;19;20011;-68
2022/05/13 00:40:44;;;;;;;3.72;1.20;;;;;;;15.53;69.12;101443.44;7384041;19;20014;-68
2022/05/13 00:43:13;;;;;;;4.50;0.30;;;;;;;15.49;68.28;101434.16;7385006;19;20025;-67
2022/05/13 00:45:41;;;;;;;4.78;0.35;;;;;;;15.46;69.37;101432.66;7382407;19;20018;-67
2022/05/13 00:48:08;;;;;;;3.28;0.38;;;;;;;15.42;69.30;101428.69;7386162;19;20034;-69
2022/05/13 00:50:39;;;;;;;4.68;0.38;;;;;;;15.38;69.67;101430.88;7382782;19;20074;-68
2022/05/13 00:53:32;;;;;;;3.08;0.22;;;;;;;15.36;69.88;101429.38;7392998;19;20040;-68
2022/05/13 00:58:28;;;;;;;1.55;0.20;;;;;;;15.34;70.53;101429.53;7391779;19;20014;-68
2022/05/13 01:00:55;;;;;;;6.28;1.02;;;;;;;15.31;70.40;101435.19;7389785;19;20328;-68
2022/05/13 01:03:22;;;;;;;4.47;0.30;;;;;;;15.29;70.99;101431.84;7392562;19;20021;-68
2022/05/13 01:05:55;;;;;;;4.05;0.40;;;;;;;15.30;71.49;101430.88;7392274;19;20010;-68
2022/05/13 01:08:22;;;;;;;3.17;0.20;;;;;;;15.26;70.63;101440.16;7390736;19;20945;-66
2022/05/13 01:10:50;;;;;;;2.35;0.30;;;;;;;15.17;71.00;101435.88;7388863;19;20017;-72
2022/05/13 01:13:22;;;;;;;1.75;0.20;;;;;;;15.14;71.19;101441.47;7387727;19;20017;-68
2022/05/13 01:15:51;;;;;;;1.27;0.20;;;;;;;15.11;71.72;101439.19;7389179;19;20078;-68
2022/05/13 01:18:30;;;;;;;3.33;0.70;;;;;;;15.11;71.31;101428.56;7391017;19;20069;-68
2022/05/13 01:20:59;;;;;;;3.03;0.73;;;;;;;15.07;71.97;101437.03;7390016;19;20665;-68
2022/05/13 01:23:30;;;;;;;1.58;0.20;;;;;;;15.11;72.69;101438.34;7390390;19;20014;-68
2022/05/13 01:26:01;;;;;;;5.05;0.22;;;;;;;15.06;71.73;101433.56;7389649;19;20095;-68
2022/05/13 01:28:35;;;;;;;1.63;0.20;;;;;;;15.01;71.58;101437.69;7388866;19;20098;-66
2022/05/13 01:31:07;;;;;;;3.60;0.30;;;;;;;14.98;71.75;101437.03;7393069;19;20023;-67
2022/05/13 01:33:34;;;;;;;4.38;0.50;;;;;;;15.01;72.83;101435.88;7389032;19;20014;-67
2022/05/13 01:36:03;;;;;;;2.15;0.20;;;;;;;14.99;72.14;101446.63;7390373;19;20078;-67
2022/05/13 01:38:34;;;;;;;2.17;0.20;;;;;;;14.95;70.83;101450.63;7390475;19;20010;-68
2022/05/13 01:41:13;;;;;;;2.50;0.32;;;;;;;14.87;71.28;101449.78;7390535;19;20019;-67
2022/05/13 01:43:42;;;;;;;3.92;0.30;;;;;;;14.83;71.38;101441.31;7389774;19;20020;-68
2022/05/13 01:46:10;;;;;;;2.33;0.35;;;;;;;14.83;72.02;101438.69;7387659;19;20007;-67
2022/05/13 01:48:38;;;;;;;3.08;0.30;;;;;;;14.80;71.84;101449.63;7393332;19;20322;-67
2022/05/13 01:51:05;;;;;;;5.03;0.25;;;;;;;14.82;71.86;101452.94;7390919;19;20406;-68
2022/05/13 01:53:32;;;;;;;2.25;0.32;;;;;;;14.84;71.97;101445.63;7386654;19;20011;-69
2022/05/13 01:55:58;;;;;;;2.90;0.20;;;;;;;14.81;71.04;101438.03;7387362;19;20017;-69
2022/05/13 01:58:26;;;;;;;2.00;0.20;;;;;;;14.80;71.13;101430.25;7390744;19;20449;-67
2022/05/13 02:00:55;;;;;;;3.35;0.40;;;;;;;14.81;71.90;101416.84;7388443;19;20545;-68
2022/05/13 02:06:00;;;;;;;2.30;0.32;;;;;;;14.80;70.99;101415.16;7389268;19;20106;-68
2022/05/13 02:08:27;;;;;;;0.77;0.10;;;;;;;14.82;70.84;101429.09;7389105;19;20018;-68
2022/05/13 02:10:54;;;;;;;5.72;0.40;;;;;;;14.82;70.62;101422.97;7390595;19;20229;-69
2022/05/13 02:13:22;;;;;;;2.13;1.05;;;;;;;14.82;70.75;101422.97;7385596;19;20369;-68
2022/05/13 02:15:52;;;;;;;2.55;0.30;;;;;;;14.84;71.90;101426.25;7389478;19;20471;-67
2022/05/13 02:18:20;;;;;;;3.90;0.30;;;;;;;14.85;70.55;101422.63;7385921;19;20045;-67
2022/05/13 02:20:47;;;;;;;3.60;0.30;;;;;;;14.87;70.69;101424.13;7387736;19;20450;-67
2022/05/13 02:23:17;;;;;;;0.95;0.10;;;;;;;14.89;70.94;101419.47;7390805;19;20443;-69
2022/05/13 02:25:44;;;;;;;4.00;0.20;;;;;;;14.90;70.75;101415.84;7387390;19;20002;-68
2022/05/13 02:28:11;;;;;;;4.50;0.70;;;;;;;14.86;70.53;101414.50;7387575;19;20090;-68
2022/05/13 02:30:38;;;;;;;3.88;0.80;;;;;;;14.85;70.23;101428.75;7392285;19;20010;-67
2022/05/13 02:33:06;;;;;;;1.77;0.20;;;;;;;14.79;69.72;101428.56;7388954;19;20070;-68
2022/05/13 02:35:33;;;;;;;1.73;0.20;;;;;;;14.72;69.63;101424.94;7391513;19;20371;-68
2022/05/13 02:38:00;;;;;;;4.13;0.20;;;;;;;14.66;70.24;101430.91;7387871;19;20003;-69
2022/05/13 02:43:04;;;;;;;4.25;0.55;;;;;;;14.62;70.57;101430.41;7390439;19;20364;-67
2022/05/13 02:45:31;;;;;;;1.65;0.10;;;;;;;14.58;71.02;101428.25;7390623;19;20010;-67
2022/05/13 02:47:57;;;;;;;2.20;0.10;;;;;;;14.60;71.08;101428.91;7388205;19;20019;-69
2022/05/13 02:50:26;;;;;;;2.20;1.15;;;;;;;14.54;70.32;101425.09;7388246;19;20352;-67
2022/05/13 02:52:52;;;;;;;3.22;0.30;;;;;;;14.50;70.58;101421.94;7389249;19;20010;-68
2022/05/13 02:55:19;;;;;;;3.15;0.20;;;;;;;14.44;70.68;101424.41;7391783;19;20305;-67
2022/05/13 02:57:46;;;;;;;2.78;0.35;;;;;;;14.42;70.40;101427.25;7389827;19;20019;-67
2022/05/13 03:00:14;;;;;;;2.88;0.20;;;;;;;14.42;71.15;101423.75;7388154;19;20018;-67
2022/05/13 03:02:43;;;;;;;0.77;0.20;;;;;;;14.36;70.40;101424.38;7388023;19;20358;-69
2022/05/13 03:05:10;;;;;;;2.28;0.20;;;;;;;14.32;71.52;101423.06;7390083;19;20014;-67
2022/05/13 03:07:37;;;;;;;6.80;1.55;;;;;;;14.34;71.22;101426.34;7391772;19;20021;-68
2022/05/13 03:10:11;;;;;;;2.13;0.30;;;;;;;14.33;71.06;101436.09;7389034;19;20025;-66
2022/05/13 03:12:39;;;;;;;3.05;0.30;;;;;;;14.36;71.46;101442.91;7390774;19;20437;-67
2022/05/13 03:15:08;;;;;;;5.30;0.45;;;;;;;14.35;71.21;101435.94;7385375;19;20014;-66
2022/05/13 03:17:35;;;;;;;1.80;0.10;;;;;;;14.32;71.30;101437.13;7386221;19;20018;-69
2022/05/13 03:20:04;;;;;;;0.32;0.17;;;;;;;14.33;71.37;101427.31;7387294;19;20011;-67
2022/05/13 03:22:32;;;;;;;1.48;0.20;;;;;;;14.33;71.47;101422.03;7389722;19;20604;-67
2022/05/13 03:24:59;;;;;;;3.08;0.22;;;;;;;14.33;71.29;101429.97;7387063;19;20078;-67
2022/05/13 03:27:26;;;;;;;3.28;0.30;;;;;;;14.34;72.87;101424.53;7388721;19;20034;-67
2022/05/13 03:29:53;;;;;;;1.92;0.20;;;;;;;14.27;72.10;101428.84;7387539;19;20015;-67
2022/05/13 03:32:20;;;;;;;3.60;0.20;;;;;;;14.26;71.82;101426.34;7389835;19;20369;-67
2022/05/13 03:34:47;;;;;;;3.70;0.32;;;;;;;14.29;71.76;101426.00;7388836;19;20007;-67
2022/05/13 03:37:14;;;;;;;0.93;0.20;;;;;;;14.27;71.51;101423.53;7391214;19;20010;-67
2022/05/13 03:39:41;;;;;;;3.67;0.20;;;;;;;14.24;71.54;101415.06;7388958;19;20015;-67
2022/05/13 03:42:09;;;;;;;4.03;0.30;;;;;;;14.16;72.91;101425.66;7389133;19;20479;-69
2022/05/13 03:44:36;;;;;;;4.60;0.22;;;;;;;14.19;73.37;101430.59;7390031;19;20014;-68
2022/05/13 03:47:05;;;;;;;4.13;0.50;;;;;;;14.22;73.19;101428.47;7384074;19;20044;-67
2022/05/13 03:49:32;;;;;;;2.30;0.10;;;;;;;14.24;73.06;101431.78;7389701;19;20010;-67
2022/05/13 03:52:00;;;;;;;3.40;0.20;;;;;;;14.23;72.37;101424.81;7389291;19;20360;-67
2022/05/13 03:54:26;;;;;;;1.58;0.20;;;;;;;14.25;72.19;101436.09;7385946;19;20359;-68
2022/05/13 03:56:53;;;;;;;6.13;0.30;;;;;;;14.22;72.99;101427.66;7387213;19;20370;-68
2022/05/13 03:59:21;;;;;;;6.22;0.60;;;;;;;14.21;72.55;101433.94;7382686;19;20022;-69
2022/05/13 04:01:48;;;;;;;2.15;0.20;;;;;;;14.17;72.68;101433.41;7388553;19;20010;-69
2022/05/13 04:04:20;;;;;;;2.00;0.20;;;;;;;14.16;72.61;101441.53;7390205;19;20092;-68
2022/05/13 04:09:31;;;;;;;3.38;0.30;;;;;;;14.09;72.51;101436.03;7389078;19;20019;-67
2022/05/13 04:17:18;;;;;;;2.88;0.30;;;;;;;14.07;73.37;101441.47;7386549;19;20018;-68
2022/05/13 04:19:45;;;;;;;2.33;0.20;;;;;;;14.00;73.22;101440.47;7389170;19;20006;-68
2022/05/13 04:22:13;;;;;;;4.47;0.25;;;;;;;13.96;73.21;101447.09;7387202;19;20110;-67
2022/05/13 04:24:40;;;;;;;4.25;0.40;;;;;;;13.89;73.95;101438.13;7385350;19;20014;-68
2022/05/13 04:27:07;;;;;;;4.80;0.30;;;;;;;13.81;74.63;101440.75;7383740;19;20534;-68
2022/05/13 04:29:34;;;;;;;1.85;0.32;;;;;;;13.84;75.09;101442.22;7390293;19;20023;-69
2022/05/13 04:32:01;;;;;;;2.75;0.20;;;;;;;13.89;74.77;101442.59;7386822;19;20014;-68
2022/05/13 04:34:29;;;;;;;3.90;0.20;;;;;;;13.90;74.54;101445.06;7386558;19;20014;-68
2022/05/13 04:36:55;;;;;;;0.55;0.10;;;;;;;13.89;74.53;101446.06;7387906;19;20344;-67
2022/05/13 04:39:22;;;;;;;2.15;0.40;;;;;;;13.84;74.45;101443.06;7383694;19;20045;-67
2022/05/13 04:44:26;;;;;;;4.47;0.30;;;;;;;13.84;75.23;101450.16;7386551;19;20003;-67
2022/05/13 04:46:53;;;;;;;4.60;0.22;;;;;;;13.79;74.82;101457.75;7384665;19;20014;-69
2022/05/13 04:49:19;;;;;;;1.65;0.20;;;;;;;13.78;75.12;101453.44;7386831;19;20011;-68
2022/05/13 04:51:52;;;;;;;4.32;0.30;;;;;;;13.76;75.14;101450.97;7385084;19;20103;-66
2022/05/13 04:54:19;;;;;;;3.33;0.30;;;;;;;13.73;75.67;101450.44;7384577;19;20034;-67
2022/05/13 04:56:46;;;;;;;3.22;0.25;;;;;;;13.74;75.85;101455.56;7386011;19;20074;-68
2022/05/13 04:59:13;;;;;;;2.63;0.40;;;;;;;13.79;76.05;101463.03;7382474;19;20672;-66
2022/05/13 05:01:39;;;;;;;3.92;0.30;;;;;;;13.84;75.27;101464.22;7383872;19;20626;-68
2022/05/13 05:04:06;;;;;;;6.63;0.32;;;;;;;13.83;75.24;101464.38;7385927;19;20426;-69
2022/05/13 05:06:34;;;;;;;2.95;0.30;;;;;;;13.80;75.16;101468.19;7388570;19;20022;-68
2022/05/13 05:09:00;;;;;;;3.63;0.45;;;;;;;13.79;75.54;101460.38;7386658;19;20019;-68
2022/05/13 05:11:30;;;;;;;8.75;0.45;;;;;;;13.86;77.09;101459.63;7386790;19;20010;-68
2022/05/13 05:13:57;;;;;;;2.90;0.30;;;;;;;13.89;76.21;101469.88;7383718;19;20018;-69
2022/05/13 05:16:25;;;;;;;5.30;0.30;;;;;;;13.91;75.68;101472.38;7383502;19;23022;-68
2022/05/13 05:18:52;;;;;;;3.45;0.40;;;;;;;13.95;75.44;101465.75;7386699;19;20353;-68
2022/05/13 05:21:19;;;;;;;5.43;0.30;;;;;;;13.94;75.04;101466.75;7386579;19;20488;-68
2022/05/13 05:23:46;;;;;;;4.03;0.30;;;;;;;13.95;75.44;101471.06;7385327;19;20029;-69
2022/05/13 05:26:13;;;;;;;5.00;0.90;;;;;;;14.04;76.38;101472.75;7386447;19;20003;-68
2022/05/13 05:28:41;;;;;;;4.90;0.40;;;;;;;14.05;75.86;101480.53;7386417;19;20773;-68
2022/05/13 05:31:11;;;;;;;3.40;0.38;;;;;;;14.05;75.14;101477.88;7384668;19;20467;-69
2022/05/13 05:36:06;;;;;;;4.28;0.30;;;;;;;14.09;75.06;101487.16;7385708;19;20302;-68
2022/05/13 05:38:33;;;;;;;1.75;0.57;;;;;;;14.14;74.83;101478.72;7388504;19;20026;-68
2022/05/13 05:41:01;;;;;;;2.58;0.30;;;;;;;14.18;75.00;101484.53;7392064;19;20443;-69
2022/05/13 05:43:29;;;;;;;5.32;0.40;;;;;;;14.23;75.15;101488.34;7391813;19;20011;-67
2022/05/13 05:45:58;;;;;;;4.85;0.40;;;;;;;14.29;74.73;101490.38;7389167;19;20019;-67
2022/05/13 05:48:25;;;;;;;4.43;0.47;;;;;;;14.31;74.42;101490.22;7394201;19;20114;-68
2022/05/13 05:50:55;;;;;;;2.60;0.32;;;;;;;14.33;74.54;101494.34;7390303;19;20015;-67
2022/05/13 05:58:36;;;;;;;3.45;0.30;;;;;;;14.42;74.42;101503.19;7390910;19;20372;-67
2022/05/13 06:01:05;;;;;;;6.35;0.40;;;;;;;14.39;74.22;101506.97;7389322;19;20014;-68
2022/05/13 06:03:32;;;;;;;4.50;0.40;;;;;;;14.39;74.59;101506.97;7391828;19;20052;-68
2022/05/13 06:06:01;;;;;;;1.60;0.30;;;;;;;14.43;73.97;101510.13;7389184;19;20015;-67
2022/05/13 06:08:28;;;;;;;4.18;0.77;;;;;;;14.42;73.87;101517.28;7388919;19;20102;-68
2022/05/13 06:10:55;;;;;;;6.53;0.40;;;;;;;14.48;75.26;101516.59;7390605;19;20014;-67
2022/05/13 06:13:23;;;;;;;4.15;0.40;;;;;;;14.52;74.75;101515.31;7391890;19;20014;-67
2022/05/13 06:15:50;;;;;;;7.40;0.40;;;;;;;14.61;73.76;101526.75;7388543;19;20018;-66
2022/05/13 06:18:18;;;;;;;5.78;0.63;;;;;;;14.63;73.61;101519.44;7389552;19;20313;-68
2022/05/13 06:20:45;;;;;;;6.72;0.45;;;;;;;14.61;73.49;101532.03;7392733;19;20011;-68
2022/05/13 06:23:12;;;;;;;2.65;0.40;;;;;;;14.67;73.48;101520.81;7394340;19;20010;-68
2022/05/13 06:25:39;;;;;;;3.60;0.50;;;;;;;14.71;74.17;101527.44;7391414;19;20602;-68
2022/05/13 06:28:07;;;;;;;2.85;0.32;;;;;;;14.73;74.18;101530.72;7388807;19;20034;-67
2022/05/13 06:30:35;;;;;;;4.80;0.43;;;;;;;14.78;73.78;101530.28;7388948;19;20038;-68
2022/05/13 06:33:04;;;;;;;5.63;0.60;;;;;;;14.79;73.37;101534.56;7388480;19;20028;-69
2022/05/13 06:35:34;;;;;;;4.38;0.30;;;;;;;14.83;73.01;101522.66;7389724;19;20022;-67
2022/05/13 06:38:02;;;;;;;4.43;0.52;;;;;;;14.84;72.64;101521.66;7393336;19;20007;-68
2022/05/13 06:40:29;;;;;;;5.80;0.60;;;;;;;14.85;73.91;101537.38;7390604;19;20039;-68
2022/05/13 06:43:03;;;;;;;6.50;0.47;;;;;;;14.92;73.16;101533.09;7392296;19;20002;-67
2022/05/13 06:45:31;;;;;;;7.53;0.52;;;;;;;14.96;72.66;101533.59;7389257;19;20018;-69
2022/05/13 06:47:58;;;;;;;3.20;0.50;;;;;;;14.92;72.03;101524.31;7392802;19;20014;-68
2022/05/13 06:50:25;;;;;;;6.30;0.47;;;;;;;14.90;72.31;101524.47;7384988;19;20144;-69
2022/05/13 06:52:52;;;;;;;6.68;1.25;;;;;;;14.89;72.66;101520.16;7392346;19;20007;-69
2022/05/13 06:55:26;;;;;;;5.85;0.82;;;;;;;14.91;73.50;101520.00;7387556;19;20014;-67
2022/05/13 06:57:53;;;;;;;9.10;1.25;;;;;;;14.91;72.96;101520.84;7387974;19;20574;-67
2022/05/13 07:00:20;;;;;;;3.08;0.50;;;;;;;14.94;72.77;101519.66;7393935;19;20031;-67
2022/05/13 07:02:47;;;;;;;6.50;0.47;;;;;;;14.96;72.57;101520.34;7387330;19;20007;-68
2022/05/13 07:05:16;;;;;;;2.65;0.40;;;;;;;15.00;72.50;101526.97;7389268;19;20373;-68
2022/05/13 07:07:43;;;;;;;7.22;0.50;;;;;;;15.01;72.08;101536.59;7388361;19;20011;-69
2022/05/13 07:10:10;;;;;;;5.32;1.17;;;;;;;15.01;73.41;101535.75;7386448;19;20011;-69
2022/05/13 07:12:39;;;;;;;3.80;0.40;;;;;;;15.01;72.98;101536.59;7389068;19;20010;-69
2022/05/13 07:15:11;;;;;;;4.85;0.70;;;;;;;15.04;72.59;101541.56;7388181;19;20038;-67
2022/05/13 07:17:39;;;;;;;4.93;0.57;;;;;;;15.03;72.45;101547.88;7386063;19;20019;-69
2022/05/13 07:20:07;;;;;;;6.80;2.13;;;;;;;15.01;72.01;101549.00;7386861;19;20546;-67
2022/05/13 07:22:35;;;;;;;3.53;0.50;;;;;;;15.01;72.25;101547.19;7389441;19;20010;-69
2022/05/13 07:25:04;;;;;;;5.70;0.50;;;;;;;15.03;72.74;101557.63;7386148;19;20014;-68
2022/05/13 07:27:31;;;;;;;8.75;0.60;;;;;;;15.04;72.28;101557.44;7390137;19;20121;-69
2022/05/13 07:29:58;;;;;;;6.55;0.50;;;;;;;15.06;72.05;101557.28;7386459;19;20007;-68
2022/05/13 07:32:34;;;;;;;7.97;0.70;;;;;;;15.09;72.34;101565.75;7388153;19;20017;-68
2022/05/13 07:35:03;;;;;;;9.32;0.63;;;;;;;15.10;72.06;101559.44;7386721;19;20014;-68
2022/05/13 07:37:44;;;;;;;5.68;0.70;;;;;;;15.21;72.28;101561.78;7388409;19;20015;-67
2022/05/13 07:42:49;;;;;;;6.47;0.88;;;;;;;15.59;71.81;101563.00;7388963;19;20014;-68
2022/05/13 07:45:17;;;;;;;5.82;0.63;;;;;;;15.70;70.42;101559.13;7389289;19;20009;-67
2022/05/13 07:47:44;;;;;;;9.93;1.02;;;;;;;15.71;70.59;101563.47;7387034;19;20034;-68
2022/05/13 07:50:14;;;;;;;5.50;0.60;;;;;;;15.71;69.69;101568.75;7386018;19;20015;-69
2022/05/13 07:52:42;;;;;;;7.60;0.80;;;;;;;15.74;69.67;101565.78;7388900;19;20025;-68
2022/05/13 07:55:11;;;;;;;5.50;1.17;;;;;;;15.71;69.83;101576.72;7387472;19;20011;-68
2022/05/13 07:57:40;;;;;;;7.32;0.80;;;;;;;15.76;70.15;101575.22;7386179;19;20014;-68
2022/05/13 08:02:46;;;;;;;4.53;0.50;;;;;;;15.76;69.58;101571.75;7385067;19;20034;-69
2022/05/13 08:05:13;;;;;;;7.10;0.80;;;;;;;15.75;69.62;101584.19;7386982;19;20019;-68
2022/05/13 08:07:40;;;;;;;6.13;0.70;;;;;;;15.73;71.17;101578.22;7387589;19;20538;-68
2022/05/13 08:10:08;;;;;;;6.30;0.70;;;;;;;15.74;70.27;101584.38;7388281;19;20010;-69
2022/05/13 08:12:36;;;;;;;8.13;0.70;;;;;;;15.73;71.81;101582.69;7389223;19;20021;-69
2022/05/13 08:15:03;;;;;;;8.18;0.95;;;;;;;15.74;75.09;101587.84;7387793;19;20490;-69
2022/05/13 08:17:33;;;;;;;10.05;0.60;;;;;;;15.73;71.64;101585.34;7385874;19;20018;-68
2022/05/13 08:20:03;;;;;;;8.95;0.60;;;;;;;15.70;71.10;101583.84;7384407;19;20507;-69
2022/05/13 08:22:31;;;;;;;6.93;0.50;;;;;;;15.69;71.05;101592.00;7387592;19;20007;-68
2022/05/13 08:24:58;;;;;;;6.18;0.50;;;;;;;15.69;71.07;101594.66;7387848;19;20029;-69
2022/05/13 08:27:25;;;;;;;5.88;0.85;;;;;;;15.69;71.53;101587.53;7386718;19;20009;-68
2022/05/13 08:29:52;;;;;;;5.80;0.50;;;;;;;15.77;72.51;101590.16;7388506;19;20026;-68
2022/05/13 08:32:19;;;;;;;8.05;1.00;;;;;;;15.79;71.81;101601.44;7386182;19;20122;-68
2022/05/13 08:34:46;;;;;;;7.93;0.88;;;;;;;15.78;71.30;101597.13;7385016;19;20015;-69
2022/05/13 08:37:13;;;;;;;8.00;0.93;;;;;;;15.78;71.94;101596.31;7384647;19;20010;-69
2022/05/13 08:39:40;;;;;;;5.90;0.75;;;;;;;15.80;71.12;101599.59;7385331;19;20018;-69
2022/05/13 08:42:21;;;;;;;8.05;0.50;;;;;;;15.74;70.81;101601.13;7384790;19;20007;-69
2022/05/13 08:44:50;;;;;;;4.80;1.00;;;;;;;15.66;70.30;101598.47;7388221;19;20007;-68
2022/05/13 08:47:20;;;;;;;6.78;0.40;;;;;;;15.66;71.11;101598.47;7387005;19;20010;-70
2022/05/13 08:50:00;;;;;;;3.85;0.40;;;;;;;15.67;71.47;101600.13;7384056;19;20007;-68
2022/05/13 08:55:23;;;;;;;7.32;0.80;;;;;;;15.63;72.14;101598.81;7387973;19;20039;-68
2022/05/13 08:57:51;;;;;;;4.43;0.50;;;;;;;15.71;72.85;101608.56;7388845;19;20099;-69
2022/05/13 09:00:28;;;;;;;6.57;0.57;;;;;;;15.69;71.42;101599.97;7385552;19;20027;-69
2022/05/13 09:03:03;;;;;;;8.38;0.90;;;;;;;15.67;71.14;101612.56;7388025;19;20221;-68
2022/05/13 09:05:49;;;;;;;5.05;0.77;;;;;;;15.73;72.71;101610.06;7385596;19;20022;-67
2022/05/13 09:08:21;;;;;;;6.57;0.95;;;;;;;15.80;73.31;101607.56;7387253;19;20147;-67
2022/05/13 09:11:08;;;;;;;5.57;0.60;;;;;;;15.89;72.82;101614.53;7386989;19;20063;-69
2022/05/13 09:13:47;;;;;;;6.97;0.68;;;;;;;15.93;71.42;101609.72;7389003;19;20014;-68
2022/05/13 09:16:25;;;;;;;8.38;0.73;;;;;;;15.98;70.99;101607.38;7393336;19;20018;-70
2022/05/13 09:19:01;;;;;;;8.93;0.90;;;;;;;16.06;71.14;101613.50;7394008;19;20346;-70
2022/05/13 09:21:29;;;;;;;8.13;2.58;;;;;;;16.17;71.05;101613.16;7389449;19;20018;-67
2022/05/13 09:23:56;;;;;;;9.80;0.90;;;;;;;16.26;71.20;101601.50;7394708;19;20041;-68
2022/05/13 09:26:26;;;;;;;5.70;1.00;;;;;;;16.34;70.49;101608.63;7391186;19;20010;-68
2022/05/13 09:29:07;;;;;;;5.43;1.00;;;;;;;16.37;69.37;101608.28;7391198;19;20023;-68
2022/05/13 09:31:40;;;;;;;7.15;0.60;;;;;;;16.42;69.05;101613.06;7392808;19;20015;-68
2022/05/13 09:34:18;;;;;;;5.03;0.63;;;;;;;16.46;68.59;101609.91;7391413;19;20361;-69
2022/05/13 09:36:49;;;;;;;3.03;0.70;;;;;;;16.50;68.42;101608.56;7396461;19;20034;-68
2022/05/13 09:39:18;;;;;;;3.85;0.60;;;;;;;16.49;67.87;101606.91;7390700;19;20011;-67
2022/05/13 09:41:49;;;;;;;5.75;0.60;;;;;;;16.48;67.69;101605.25;7393406;19;20033;-71
2022/05/13 09:44:26;;;;;;;5.60;0.60;;;;;;;16.51;66.92;101610.19;7393180;19;20338;-67
2022/05/13 09:47:07;;;;;;;5.05;0.50;;;;;;;16.50;66.73;101611.22;7388113;19;20027;-68
2022/05/13 09:49:56;;;;;;;8.82;0.75;;;;;;;16.55;65.63;101622.16;7390015;19;20015;-67
2022/05/13 09:52:32;;;;;;;7.28;1.40;;;;;;;16.50;66.31;101611.22;7392475;19;20026;-68
2022/05/13 09:55:19;;;;;;;7.82;0.80;;;;;;;16.54;66.15;101615.19;7393351;19;20011;-68
2022/05/13 09:57:51;;;;;;;4.70;0.40;;;;;;;16.60;66.17;101609.22;7393994;19;20057;-67
2022/05/13 10:00:24;;;;;;;6.53;0.98;;;;;;;16.58;65.91;101615.66;7387264;19;20415;-67
2022/05/13 10:03:08;;;;;;;6.60;0.60;;;;;;;16.64;65.80;101625.66;7393915;19;20074;-68
2022/05/13 10:05:35;;;;;;;3.67;0.50;;;;;;;16.62;66.14;101624.97;7391173;19;20007;-68
2022/05/13 10:08:09;;;;;;;6.03;0.50;;;;;;;16.58;65.12;101613.00;7393737;19;20126;-67
2022/05/13 10:16:08;;;;;;;21.05;7.15;;;;;;;16.49;65.79;101617.53;7389069;19;20021;-67
2022/05/13 10:18:43;;;;;;;7.90;1.10;;;;;;;16.55;64.62;101610.72;7393607;19;20057;-67
2022/05/13 10:21:26;;;;;;;5.68;0.88;;;;;;;16.57;64.25;101606.03;7388758;19;20127;-68
2022/05/13 10:24:01;;;;;;;5.80;0.88;;;;;;;16.64;64.97;101612.34;7388583;19;20007;-68
2022/05/13 10:26:35;;;;;;;7.65;0.60;;;;;;;16.67;65.28;101612.00;7393584;19;20086;-69
2022/05/13 10:29:13;;;;;;;8.23;0.93;;;;;;;16.67;63.99;101607.50;7389279;19;20010;-69
2022/05/13 10:31:43;;;;;;;5.75;0.65;;;;;;;16.64;64.00;101602.56;7392492;19;20018;-67
2022/05/13 10:34:24;;;;;;;7.03;1.10;;;;;;;16.71;64.81;101599.22;7392328;19;20447;-68
2022/05/13 10:36:57;;;;;;;6.15;0.45;;;;;;;16.78;63.73;101600.16;7392258;19;20038;-69
2022/05/13 10:39:30;;;;;;;;;;;;;;;16.82;62.98;101606.78;7389737;19;20014;-68
2022/05/13 10:42:02;;;;;;;5.47;0.80;;;;;;;16.86;63.70;101595.66;7393689;19;19926;-69
2022/05/13 10:44:43;;;;;;;6.68;0.90;;;;;;;16.91;64.09;101589.81;7388368;19;20011;-68
2022/05/13 10:47:37;;;;;;;9.77;0.63;;;;;;;17.01;63.97;101606.34;7391935;19;20126;-68
2022/05/13 10:50:25;;;;;;;3.92;0.40;;;;;;;17.05;63.36;101597.03;7389514;19;20503;-67
2022/05/13 10:53:02;;;;;;;5.85;0.55;;;;;;;17.06;63.62;101594.19;7388076;19;20006;-68
2022/05/13 10:58:28;;;;;;;6.93;1.13;;;;;;;17.05;63.77;101591.69;7390364;19;20014;-68
2022/05/13 11:01:08;;;;;;;4.85;1.02;;;;;;;17.06;63.47;101591.53;7385436;19;20006;-68
2022/05/13 11:03:48;;;;;;;8.27;0.63;;;;;;;17.15;64.76;101594.13;7387804;19;20002;-68
2022/05/13 11:06:40;;;;;;;9.23;2.97;;;;;;;17.22;64.02;101595.88;7386778;19;20018;-69
2022/05/13 11:09:14;;;;;;;5.05;0.60;;;;;;;17.25;62.75;101594.72;7387425;19;20006;-69
2022/05/13 11:11:44;;;;;;;3.88;0.55;;;;;;;17.29;63.72;101591.53;7387264;19;20010;-68
2022/05/13 11:14:26;;;;;;;9.80;1.08;;;;;;;17.33;63.54;101586.66;7387447;19;20654;-68
2022/05/13 11:17:16;;;;;;;4.47;0.50;;;;;;;17.31;61.94;101589.53;7388600;19;20718;-69
2022/05/13 11:19:55;;;;;;;7.40;0.85;;;;;;;17.33;63.44;101590.16;7390603;19;20019;-68
2022/05/13 11:22:39;;;;;;;10.27;0.90;;;;;;;17.37;62.00;101580.00;7385197;19;20027;-67
2022/05/13 11:25:54;;;;;;;4.13;0.50;;;;;;;17.45;62.72;101575.44;7389263;19;20011;-67
2022/05/13 11:28:34;;;;;;;5.78;0.50;;;;;;;17.58;62.64;101577.47;7389417;19;20011;-68
2022/05/13 11:31:13;;;;;;;5.47;0.45;;;;;;;17.63;62.39;101575.13;7388529;19;20018;-67
2022/05/13 11:33:42;;;;;;;5.88;0.60;;;;;;;17.71;62.27;101576.91;7388447;19;20475;-67
2022/05/13 11:36:32;;;;;;;4.60;0.50;;;;;;;17.72;60.82;101571.41;7386514;19;20073;-68
2022/05/13 11:39:25;;;;;;;4.32;0.60;;;;;;;17.73;60.06;101577.53;7386256;19;20014;-68
2022/05/13 11:41:56;;;;;;;6.10;0.70;;;;;;;17.76;60.41;101569.19;7387853;19;20015;-69
2022/05/13 11:44:54;;;;;;;7.82;0.65;;;;;;;17.78;60.25;101572.50;7388415;19;20134;-67
2022/05/13 11:47:41;;;;;;;5.20;0.77;;;;;;;17.83;59.97;101562.94;7386947;19;20025;-67
2022/05/13 11:50:11;;;;;;;8.90;0.47;;;;;;;17.90;59.26;101555.91;7386543;19;20010;-67
2022/05/13 11:52:38;;;;;;;5.53;0.50;;;;;;;17.98;59.99;101562.97;7387308;19;20030;-68
2022/05/13 11:55:18;;;;;;;3.13;0.45;;;;;;;18.12;60.83;101561.34;7389360;19;20010;-67
2022/05/13 11:57:48;;;;;;;5.43;0.47;;;;;;;18.21;60.00;101557.56;7388213;19;20010;-67
2022/05/13 12:00:36;;;;;;;6.75;0.47;;;;;;;18.33;58.74;101550.75;7385458;19;20078;-69
2022/05/13 12:03:16;;;;;;;6.15;0.55;;;;;;;18.44;58.27;101563.59;7388553;19;20022;-67
2022/05/13 12:05:48;;;;;;;5.10;0.43;;;;;;;18.49;56.53;101550.53;7387024;19;20034;-67
2022/05/13 12:08:33;;;;;;;3.80;0.60;;;;;;;18.61;58.27;101548.25;7387004;19;20030;-69
2022/05/13 12:11:03;;;;;;;5.90;0.40;;;;;;;18.70;57.38;101547.13;7390851;19;20014;-68
2022/05/13 12:14:01;;;;;;;2.78;0.40;;;;;;;18.74;57.54;101543.88;7385313;19;20029;-69
2022/05/13 12:16:46;;;;;;;4.60;0.43;;;;;;;18.80;56.70;101543.13;7389236;19;20259;-67
2022/05/13 12:19:42;;;;;;;4.55;0.70;;;;;;;18.82;56.26;101545.63;7389867;19;20010;-68
2022/05/13 12:22:31;;;;;;;8.68;0.60;;;;;;;18.88;56.61;101541.38;7385697;19;20921;-67
2022/05/13 12:25:04;;;;;;;6.35;0.70;;;;;;;18.90;56.68;101542.81;7386117;19;20034;-68